createdAt,value
2023-05-11T00:00:20.582Z,95693.31
2023-05-11T00:02:24.761Z,95704.63
2023-05-11T00:04:27.652Z,95706.22
2023-05-11T00:06:30.594Z,95708.66
2023-05-11T00:08:33.375Z,95703.81
2023-05-11T00:10:36.197Z,95701.94
2023-05-11T00:12:38.991Z,95656.34
2023-05-11T00:14:41.732Z,95699.53
2023-05-11T00:16:44.504Z,95709.47
2023-05-11T00:18:49.181Z,95704.91
2023-05-11T00:20:51.998Z,95701.41
2023-05-11T00:22:55.005Z,95695.47
2023-05-11T00:24:57.908Z,95704.63
2023-05-11T00:27:00.918Z,95699.53
2023-05-11T00:29:03.618Z,95700.31
2023-05-11T00:31:06.588Z,95694.94
2023-05-11T00:33:09.323Z,95695.47
2023-05-11T00:35:13.858Z,95637.47
2023-05-11T00:37:16.663Z,95686.31
2023-05-11T00:39:19.454Z,95700.31
2023-05-11T00:41:22.601Z,95693.59
2023-05-11T00:43:25.622Z,95691.94
2023-05-11T00:45:28.874Z,95691.69
2023-05-11T00:47:31.975Z,95686.84
2023-05-11T00:49:34.995Z,95643.66
2023-05-11T00:51:39.496Z,95676.31
2023-05-11T00:53:42.401Z,95678.22
2023-05-11T00:55:45.798Z,95675.53
2023-05-11T00:57:48.675Z,95684.66
2023-05-11T00:59:52.615Z,95639.06
2023-05-11T01:01:56.631Z,95673.09
2023-05-11T01:03:59.473Z,95681.44
2023-05-11T01:06:09.353Z,95676.03
2023-05-11T01:08:18.622Z,95676.03
2023-05-11T01:10:27.444Z,95679.28
2023-05-11T01:12:39.354Z,95681.16
2023-05-11T01:14:50.069Z,95638.25
2023-05-11T01:16:58.283Z,95674.69
2023-05-11T01:19:06.517Z,95664.97
2023-05-11T01:21:11.859Z,95679.78
2023-05-11T01:23:44.931Z,95676.28
2023-05-11T01:26:08.568Z,95662.25
2023-05-11T01:28:30.056Z,95680.84
2023-05-11T01:30:40.406Z,95673.84
2023-05-11T01:32:45.865Z,95668.19
2023-05-11T01:34:51.542Z,95679.75
2023-05-11T01:36:58.513Z,95674.38
2023-05-11T01:39:05.392Z,95661.94
2023-05-11T01:41:13.378Z,95680.03
2023-05-11T01:43:22.353Z,95681.91
2023-05-11T01:45:26.992Z,95606.84
2023-05-11T01:47:32.739Z,95669.00
2023-05-11T01:49:39.649Z,95669.00
2023-05-11T01:51:45.039Z,95669.53
2023-05-11T01:53:49.060Z,95676.00
2023-05-11T01:55:53.849Z,95644.41
2023-05-11T01:57:57.396Z,95678.69
2023-05-11T02:00:01.822Z,95677.59
2023-05-11T02:02:05.557Z,95680.81
2023-05-11T02:04:10.829Z,95681.91
2023-05-11T02:06:16.352Z,95626.78
2023-05-11T02:08:20.903Z,95675.97
2023-05-11T02:10:27.441Z,95685.38
2023-05-11T02:12:33.689Z,95677.25
2023-05-11T02:14:39.245Z,95682.69
2023-05-11T02:16:42.494Z,95678.06
2023-05-11T02:18:45.855Z,95684.78
2023-05-11T02:20:51.786Z,95658.34
2023-05-11T02:22:57.003Z,95660.25
2023-05-11T02:24:59.826Z,95684.56
2023-05-11T02:27:02.845Z,95683.47
2023-05-11T02:29:05.773Z,95678.66
2023-05-11T02:31:13.417Z,95677.59
2023-05-11T02:33:22.290Z,95686.16
2023-05-11T02:35:29.323Z,95682.41
2023-05-11T02:37:36.158Z,95684.03
2023-05-11T02:39:41.351Z,95677.25
2023-05-11T02:41:47.501Z,95679.19
2023-05-11T02:43:53.144Z,95678.88
2023-05-11T02:46:02.216Z,95682.50
2023-05-11T02:48:09.714Z,95674.69
2023-05-11T02:50:14.161Z,95685.97
2023-05-11T02:52:19.842Z,95672.00
2023-05-11T02:54:25.494Z,95679.81
2023-05-11T03:00:18.077Z,95673.00
2023-05-11T03:02:23.015Z,95676.28
2023-05-11T03:04:26.534Z,95673.66
2023-05-11T03:06:29.710Z,95672.69
2023-05-11T03:08:32.999Z,95668.75
2023-05-11T03:10:37.725Z,95668.78
2023-05-11T03:12:40.849Z,95663.16
2023-05-11T03:14:46.126Z,95670.72
2023-05-11T03:16:49.888Z,95666.69
2023-05-11T03:18:56.277Z,95648.34
2023-05-11T03:21:01.706Z,95661.03
2023-05-11T03:23:07.609Z,95666.19
2023-05-11T03:25:12.123Z,95661.06
2023-05-11T03:27:17.315Z,95667.78
2023-05-11T03:29:21.306Z,95665.63
2023-05-11T03:31:24.466Z,95673.69
2023-05-11T03:33:27.804Z,95661.59
2023-05-11T03:35:34.484Z,95557.41
2023-05-11T03:37:39.207Z,95661.81
2023-05-11T03:39:47.049Z,95654.56
2023-05-11T03:41:51.861Z,95658.88
2023-05-11T03:44:01.074Z,95665.06
2023-05-11T03:46:05.968Z,95668.84
2023-05-11T03:48:11.073Z,95644.06
2023-05-11T03:50:15.551Z,95657.47
2023-05-11T03:52:20.917Z,95649.97
2023-05-11T03:54:24.592Z,95648.94
2023-05-11T03:56:28.038Z,95656.47
2023-05-11T03:58:31.730Z,95648.88
2023-05-11T04:00:39.235Z,95652.13
2023-05-11T04:02:42.617Z,95650.97
2023-05-11T04:04:47.611Z,95614.28
2023-05-11T04:06:52.603Z,95657.75
2023-05-11T04:08:58.384Z,95606.91
2023-05-11T04:11:01.364Z,95639.91
2023-05-11T04:13:04.484Z,95643.94
2023-05-11T04:15:08.659Z,95639.94
2023-05-11T04:17:13.130Z,95652.53
2023-05-11T04:19:16.703Z,95649.03
2023-05-11T04:21:19.669Z,95647.19
2023-05-11T04:23:23.826Z,95648.00
2023-05-11T04:25:27.604Z,95649.41
2023-05-11T04:27:33.937Z,95651.03
2023-05-11T04:29:37.112Z,95651.63
2023-05-11T04:31:40.257Z,95654.34
2023-05-11T04:33:45.349Z,95564.22
2023-05-11T04:35:51.001Z,95650.59
2023-05-11T04:37:54.179Z,95662.88
2023-05-11T04:39:58.010Z,95632.66
2023-05-11T04:42:01.971Z,95658.41
2023-05-11T04:44:06.016Z,95655.22
2023-05-11T04:46:09.041Z,95658.81
2023-05-11T04:48:12.211Z,95614.38
2023-05-11T04:50:17.146Z,95655.06
2023-05-11T04:52:21.017Z,95661.59
2023-05-11T04:54:26.028Z,95655.47
2023-05-11T04:56:29.092Z,95660.56
2023-05-11T04:58:32.127Z,95661.66
2023-05-11T05:00:36.543Z,95657.66
2023-05-11T05:02:39.640Z,95661.09
2023-05-11T05:04:42.673Z,95663.22
2023-05-11T05:06:47.128Z,95605.56
2023-05-11T05:08:52.035Z,95663.56
2023-05-11T05:10:56.350Z,95663.00
2023-05-11T05:13:00.073Z,95660.88
2023-05-11T05:15:03.343Z,95665.13
2023-05-11T05:17:06.562Z,95662.22
2023-05-11T05:19:12.773Z,95660.63
2023-05-11T05:21:16.465Z,95668.47
2023-05-11T05:23:22.473Z,95666.88
2023-05-11T05:25:26.026Z,95569.19
2023-05-11T05:27:29.254Z,95659.63
2023-05-11T05:29:33.370Z,95666.16
2023-05-11T05:31:36.407Z,95665.94
2023-05-11T05:33:39.723Z,95664.94
2023-05-11T05:35:44.084Z,95670.78
2023-05-11T05:37:48.087Z,95658.75
2023-05-11T05:39:52.807Z,95668.66
2023-05-11T05:41:56.304Z,95665.50
2023-05-11T05:44:00.446Z,95671.66
2023-05-11T05:46:03.535Z,95670.63
2023-05-11T05:48:07.577Z,95662.63
2023-05-11T05:50:11.906Z,95649.09
2023-05-11T05:52:17.320Z,95663.44
2023-05-11T05:54:22.887Z,95676.31
2023-05-11T05:56:27.583Z,95672.81
2023-05-11T05:58:30.569Z,95672.25
2023-05-11T06:00:33.727Z,95668.47
2023-05-11T06:02:41.455Z,95660.44
2023-05-11T06:04:48.770Z,95669.09
2023-05-11T06:06:52.055Z,95679.66
2023-05-11T06:08:55.082Z,95664.00
2023-05-11T06:10:58.114Z,95675.25
2023-05-11T06:13:02.460Z,95670.28
2023-05-11T06:15:06.665Z,95645.28
2023-05-11T06:17:12.725Z,95682.63
2023-05-11T06:19:15.797Z,95684.28
2023-05-11T06:21:19.050Z,95679.69
2023-05-11T06:23:22.304Z,95676.69
2023-05-11T06:25:25.311Z,95678.06
2023-05-11T06:27:28.349Z,95674.03
2023-05-11T06:29:34.832Z,95677.03
2023-05-11T06:31:39.788Z,95684.91
2023-05-11T06:33:43.810Z,95673.31
2023-05-11T06:35:55.694Z,95677.34
2023-05-11T06:37:58.805Z,95633.34
2023-05-11T06:40:02.310Z,95676.25
2023-05-11T06:42:06.726Z,95672.25
2023-05-11T06:44:10.479Z,95656.69
2023-05-11T06:46:17.909Z,95681.03
2023-05-11T06:48:23.371Z,95681.13
2023-05-11T06:50:27.807Z,95673.50
2023-05-11T06:52:31.160Z,95665.44
2023-05-11T06:54:37.265Z,95676.97
2023-05-11T06:56:40.329Z,95677.34
2023-05-11T06:58:44.672Z,95665.81
2023-05-11T07:00:47.910Z,95672.78
2023-05-11T07:02:52.862Z,95676.88
2023-05-11T07:04:56.054Z,95673.13
2023-05-11T07:06:59.147Z,95679.56
2023-05-11T07:09:03.572Z,95675.53
2023-05-11T07:11:06.700Z,95685.53
2023-05-11T07:13:09.798Z,95676.91
2023-05-11T07:15:13.118Z,95681.22
2023-05-11T07:17:16.134Z,95682.03
2023-05-11T07:19:20.485Z,95683.09
2023-05-11T07:21:23.528Z,95677.41
2023-05-11T07:23:26.595Z,95676.88
2023-05-11T07:25:29.662Z,95681.22
2023-05-11T07:27:33.090Z,95687.13
2023-05-11T07:29:36.268Z,95688.72
2023-05-11T07:31:39.478Z,95688.75
2023-05-11T07:33:42.685Z,95689.81
2023-05-11T07:35:47.279Z,95691.44
2023-05-11T07:37:50.472Z,95686.56
2023-05-11T07:39:54.446Z,95689.28
2023-05-11T07:41:57.695Z,95688.47
2023-05-11T07:44:02.192Z,95665.56
2023-05-11T07:46:05.699Z,95688.22
2023-05-11T07:48:09.171Z,95682.03
2023-05-11T07:50:12.752Z,95688.22
2023-05-11T07:52:17.372Z,95681.19
2023-05-11T07:54:21.850Z,95687.13
2023-05-11T07:56:25.233Z,95684.97
2023-05-11T07:58:28.487Z,95683.34
2023-05-11T08:00:31.773Z,95680.94
2023-05-11T08:02:35.139Z,95673.09
2023-05-11T08:04:38.589Z,95679.03
2023-05-11T08:06:41.810Z,95680.66
2023-05-11T08:08:46.405Z,95687.94
2023-05-11T08:10:49.679Z,95670.69
2023-05-11T08:12:52.906Z,95686.56
2023-05-11T08:14:56.517Z,95680.34
2023-05-11T08:16:59.802Z,95683.88
2023-05-11T08:19:03.222Z,95686.06
2023-05-11T08:21:07.560Z,95678.22
2023-05-11T08:23:17.160Z,95621.66
2023-05-11T08:25:21.834Z,95668.28
2023-05-11T08:27:25.043Z,95680.69
2023-05-11T08:29:28.454Z,95689.81
2023-05-11T08:31:31.934Z,95691.44
2023-05-11T08:33:38.032Z,95689.81
2023-05-11T08:35:42.171Z,95683.59
2023-05-11T08:37:45.389Z,95693.03
2023-05-11T08:39:48.608Z,95682.66
2023-05-11T08:41:54.472Z,95692.81
2023-05-11T08:43:59.195Z,95608.13
2023-05-11T08:46:05.149Z,95538.59
2023-05-11T08:48:08.774Z,95695.22
2023-05-11T08:50:12.344Z,95702.47
2023-05-11T08:52:17.976Z,95691.50
2023-05-11T08:54:21.150Z,95676.00
2023-05-11T08:56:25.788Z,95693.91
2023-05-11T08:58:32.121Z,95688.50
2023-05-11T09:00:36.115Z,95693.28
2023-05-11T09:02:40.173Z,95691.22
2023-05-11T09:04:46.082Z,95683.53
2023-05-11T09:06:51.384Z,95697.59
2023-05-11T09:08:54.977Z,95694.66
2023-05-11T09:10:58.521Z,95693.06
2023-05-11T09:13:01.710Z,95694.66
2023-05-11T09:15:07.369Z,95698.97
2023-05-11T09:17:10.658Z,95691.16
2023-05-11T09:19:16.918Z,95693.06
2023-05-11T09:21:20.928Z,95654.25
2023-05-11T09:23:27.773Z,95693.34
2023-05-11T09:25:35.046Z,95693.06
2023-05-11T09:27:42.565Z,95629.69
2023-05-11T09:29:52.044Z,95684.44
2023-05-11T09:31:57.937Z,95635.38
2023-05-11T09:34:11.312Z,95703.03
2023-05-11T09:36:25.005Z,95689.00
2023-05-11T09:38:28.303Z,95694.66
2023-05-11T09:40:34.583Z,95683.63
2023-05-11T09:42:38.351Z,95690.63
2023-05-11T09:44:42.601Z,95691.72
2023-05-11T09:46:47.698Z,95703.22
2023-05-11T09:49:00.032Z,95688.72
2023-05-11T09:51:05.220Z,95580.59
2023-05-11T09:53:08.527Z,95672.91
2023-05-11T09:55:12.203Z,95688.16
2023-05-11T09:57:25.187Z,95684.66
2023-05-11T09:59:40.217Z,95692.41
2023-05-11T10:01:43.485Z,95684.84
2023-05-11T10:04:00.269Z,95678.81
2023-05-11T10:06:10.816Z,95682.00
2023-05-11T10:08:14.170Z,95677.97
2023-05-11T10:10:18.640Z,95672.28
2023-05-11T10:12:24.080Z,95679.41
2023-05-11T10:14:29.577Z,95657.22
2023-05-11T10:16:33.135Z,95682.03
2023-05-11T10:18:38.453Z,95683.59
2023-05-11T10:20:42.273Z,95684.84
2023-05-11T10:22:47.492Z,95681.47
2023-05-11T10:24:51.692Z,95677.84
2023-05-11T10:26:57.708Z,95676.84
2023-05-11T10:29:01.869Z,95676.25
2023-05-11T10:31:05.736Z,95666.56
2023-05-11T10:33:09.755Z,95551.53
2023-05-11T10:35:13.278Z,95674.97
2023-05-11T10:37:17.039Z,95675.97
2023-05-11T10:39:22.175Z,95666.59
2023-05-11T10:41:49.163Z,95660.19
2023-05-11T10:44:10.446Z,95673.31
2023-05-11T10:46:30.453Z,95668.00
2023-05-11T10:49:19.172Z,95671.69
2023-05-11T10:51:34.659Z,95677.31
2023-05-11T10:53:59.051Z,95670.94
2023-05-11T10:56:39.905Z,95660.16
2023-05-11T10:59:12.170Z,95659.53
2023-05-11T11:01:39.469Z,95664.34
2023-05-11T11:03:42.821Z,95664.91
2023-05-11T11:05:48.240Z,95662.63
2023-05-11T11:08:03.876Z,95650.47
2023-05-11T11:10:09.206Z,95629.25
2023-05-11T11:12:14.522Z,95643.44
2023-05-11T11:14:19.274Z,95662.25
2023-05-11T11:16:25.109Z,95654.56
2023-05-11T11:18:29.634Z,95578.03
2023-05-11T11:20:48.852Z,95655.34
2023-05-11T11:22:52.076Z,95658.53
2023-05-11T11:24:55.325Z,95672.69
2023-05-11T11:26:58.521Z,95665.50
2023-05-11T11:29:13.014Z,95673.56
2023-05-11T11:31:26.366Z,95657.72
2023-05-11T11:33:34.825Z,95579.91
2023-05-11T11:35:48.902Z,95657.22
2023-05-11T11:38:02.226Z,95566.16
2023-05-11T11:40:14.894Z,95660.44
2023-05-11T11:42:20.414Z,95653.69
2023-05-11T11:44:25.016Z,95656.94
2023-05-11T11:46:29.909Z,95656.63
2023-05-11T11:48:35.497Z,95661.09
2023-05-11T11:50:40.068Z,95652.03
2023-05-11T11:52:43.226Z,95658.53
2023-05-11T11:54:47.251Z,95602.53
2023-05-11T11:56:50.550Z,95506.63
2023-05-11T11:59:00.982Z,95651.63
2023-05-11T12:01:05.987Z,95653.66
2023-05-11T12:03:11.546Z,95653.75
2023-05-11T12:05:18.792Z,95641.88
2023-05-11T12:07:22.751Z,95647.72
2023-05-11T12:09:26.890Z,95629.34
2023-05-11T12:11:31.124Z,95648.81
2023-05-11T12:13:35.327Z,95548.16
2023-05-11T12:15:38.723Z,95636.84
2023-05-11T12:17:43.370Z,95639.16
2023-05-11T12:19:46.905Z,95584.19
2023-05-11T12:21:50.122Z,95634.19
2023-05-11T12:23:54.841Z,95629.34
2023-05-11T12:26:04.848Z,95636.75
2023-05-11T12:28:08.061Z,95636.75
2023-05-11T12:30:20.857Z,95625.56
2023-05-11T12:32:28.772Z,95629.91
2023-05-11T12:34:33.426Z,95623.78
2023-05-11T12:36:37.616Z,95624.81
2023-05-11T12:38:44.917Z,95631.50
2023-05-11T12:40:50.019Z,95625.41
2023-05-11T12:42:53.769Z,95615.16
2023-05-11T12:44:57.457Z,95572.53
2023-05-11T12:47:00.832Z,95625.25
2023-05-11T12:49:04.431Z,95617.78
2023-05-11T12:51:09.003Z,95628.50
2023-05-11T12:53:16.140Z,95621.66
2023-05-11T12:55:28.838Z,95619.94
2023-05-11T12:57:33.620Z,95608.88
2023-05-11T12:59:38.556Z,95609.00
2023-05-11T13:01:41.835Z,95615.38
2023-05-11T13:03:48.360Z,95609.88
2023-05-11T13:05:52.354Z,95610.47
2023-05-11T13:08:03.499Z,95594.22
2023-05-11T13:10:07.713Z,95600.00
2023-05-11T13:12:20.935Z,95606.75
2023-05-11T13:14:24.104Z,95601.59
2023-05-11T13:16:28.709Z,95603.88
2023-05-11T13:18:32.184Z,95602.19
2023-05-11T13:20:35.718Z,95597.63
2023-05-11T13:22:39.026Z,95592.91
2023-05-11T13:24:43.632Z,95602.53
2023-05-11T13:26:46.810Z,95595.16
2023-05-11T13:29:01.936Z,95591.13
2023-05-11T13:31:12.500Z,95591.66
2023-05-11T13:33:15.977Z,95592.75
2023-05-11T13:35:19.471Z,95594.59
2023-05-11T13:37:22.857Z,95573.06
2023-05-11T13:39:26.022Z,95598.97
2023-05-11T13:41:30.593Z,95591.56
2023-05-11T13:43:33.841Z,95591.22
2023-05-11T13:45:40.158Z,95586.59
2023-05-11T13:47:45.502Z,95584.75
2023-05-11T13:49:49.036Z,95589.81
2023-05-11T13:51:52.663Z,95580.22
2023-05-11T13:53:55.979Z,95582.53
2023-05-11T13:55:59.370Z,95554.50
2023-05-11T13:58:03.902Z,95589.19
2023-05-11T14:00:08.289Z,95587.47
2023-05-11T14:02:14.694Z,95587.31
2023-05-11T14:04:17.874Z,95585.81
2023-05-11T14:06:24.075Z,95579.72
2023-05-11T14:08:27.907Z,95580.72
2023-05-11T14:10:31.060Z,95574.25
2023-05-11T14:12:34.286Z,95567.19
2023-05-11T14:14:39.047Z,95576.00
2023-05-11T14:16:42.342Z,95571.22
2023-05-11T14:18:45.800Z,95566.53
2023-05-11T14:20:49.090Z,95569.69
2023-05-11T14:22:52.437Z,95562.47
2023-05-11T14:24:55.671Z,95562.00
2023-05-11T14:26:59.306Z,95568.47
2023-05-11T14:29:02.490Z,95567.88
2023-05-11T14:31:07.784Z,95565.59
2023-05-11T14:33:11.001Z,95559.72
2023-05-11T14:35:14.293Z,95564.69
2023-05-11T14:37:17.506Z,95563.97
2023-05-11T14:39:20.775Z,95552.91
2023-05-11T14:41:24.005Z,95552.03
2023-05-11T14:43:27.324Z,95538.13
2023-05-11T14:45:30.549Z,95548.88
2023-05-11T14:47:35.266Z,95558.84
2023-05-11T14:49:38.465Z,95555.38
2023-05-11T14:51:41.676Z,95552.41
2023-05-11T14:53:45.133Z,95554.81
2023-05-11T14:55:48.338Z,95553.28
2023-05-11T14:57:51.598Z,95552.44
2023-05-11T15:00:00.137Z,95548.91
2023-05-11T15:02:03.931Z,95545.00
2023-05-11T15:04:08.731Z,95544.31
2023-05-11T15:06:11.900Z,95537.34
2023-05-11T15:08:28.457Z,95540.75
2023-05-11T15:10:32.661Z,95524.88
2023-05-11T15:12:35.843Z,95549.47
2023-05-11T15:14:39.102Z,95539.44
2023-05-11T15:16:42.367Z,95536.31
2023-05-11T15:18:48.426Z,95547.84
2023-05-11T15:20:53.058Z,95544.81
2023-05-11T15:22:56.401Z,95522.69
2023-05-11T15:24:59.558Z,95536.94
2023-05-11T15:27:02.697Z,95490.28
2023-05-11T15:29:05.813Z,95535.69
2023-05-11T15:31:08.944Z,95531.91
2023-05-11T15:33:12.272Z,95531.09
2023-05-11T15:35:16.991Z,95532.81
2023-05-11T15:37:21.850Z,95532.06
2023-05-11T15:39:25.121Z,95535.50
2023-05-11T15:41:28.251Z,95533.59
2023-05-11T15:43:31.356Z,95514.50
2023-05-11T15:45:34.582Z,95456.72
2023-05-11T15:47:38.084Z,95540.00
2023-05-11T15:49:41.866Z,95531.53
2023-05-11T15:51:45.008Z,95539.22
2023-05-11T15:53:49.511Z,95528.44
2023-05-11T15:55:55.483Z,95473.72
2023-05-11T15:57:58.866Z,95528.25
2023-05-11T16:00:02.011Z,95538.25
2023-05-11T16:02:10.881Z,95539.25
2023-05-11T16:04:14.462Z,95540.28
2023-05-11T16:06:17.669Z,95534.13
2023-05-11T16:08:20.793Z,95537.84
2023-05-11T16:10:25.490Z,95541.28
2023-05-11T16:12:28.663Z,95533.84
2023-05-11T16:14:32.139Z,95534.75
2023-05-11T16:16:35.411Z,95536.25
2023-05-11T16:18:39.554Z,95531.56
2023-05-11T16:20:42.824Z,95530.41
2023-05-11T16:22:47.642Z,95527.75
2023-05-11T16:24:51.166Z,95526.81
2023-05-11T16:26:55.764Z,95503.44
2023-05-11T16:28:58.976Z,95528.75
2023-05-11T16:31:02.199Z,95526.88
2023-05-11T16:33:05.573Z,95527.97
2023-05-11T16:35:09.514Z,95518.00
2023-05-11T16:37:12.691Z,95534.38
2023-05-11T16:39:15.887Z,95530.88
2023-05-11T16:41:19.144Z,95533.75
2023-05-11T16:43:23.716Z,95510.91
2023-05-11T16:45:26.935Z,95534.63
2023-05-11T16:47:30.166Z,95516.00
2023-05-11T16:49:33.578Z,95530.97
2023-05-11T16:51:36.797Z,95497.13
2023-05-11T16:53:40.108Z,95533.59
2023-05-11T16:55:43.325Z,95532.41
2023-05-11T16:57:46.516Z,95529.63
2023-05-11T16:59:51.115Z,95524.41
2023-05-11T17:01:54.331Z,95522.81
2023-05-11T17:03:57.670Z,95522.34
2023-05-11T17:06:00.971Z,95522.81
2023-05-11T17:08:04.345Z,95529.97
2023-05-11T17:10:08.684Z,95530.41
2023-05-11T17:12:12.133Z,95498.31
2023-05-11T17:14:15.393Z,95528.16
2023-05-11T17:16:20.114Z,95471.22
2023-05-11T17:18:23.892Z,95474.97
2023-05-11T17:20:27.168Z,95530.34
2023-05-11T17:22:30.556Z,95528.75
2023-05-11T17:24:33.944Z,95520.13
2023-05-11T17:26:46.997Z,95525.88
2023-05-11T17:28:50.884Z,95528.13
2023-05-11T17:30:54.201Z,95530.13
2023-05-11T17:32:59.037Z,95531.66
2023-05-11T17:35:03.575Z,95528.28
2023-05-11T17:37:06.926Z,95531.97
2023-05-11T17:39:10.984Z,95524.06
2023-05-11T17:41:14.618Z,95535.09
2023-05-11T17:43:17.793Z,95519.78
2023-05-11T17:45:21.210Z,95536.16
2023-05-11T17:47:24.585Z,95497.81
2023-05-11T17:49:29.207Z,95531.22
2023-05-11T17:51:32.961Z,95537.31
2023-05-11T17:53:36.167Z,95547.97
2023-05-11T17:55:40.415Z,95533.44
2023-05-11T17:57:43.612Z,95537.78
2023-05-11T17:59:47.230Z,95518.81
2023-05-11T18:01:50.497Z,95454.22
2023-05-11T18:03:53.848Z,95545.44
2023-05-11T18:05:58.699Z,95545.31
2023-05-11T18:08:02.933Z,95548.16
2023-05-11T18:10:07.145Z,95551.50
2023-05-11T18:12:11.097Z,95552.56
2023-05-11T18:14:14.344Z,95553.47
2023-05-11T18:16:18.820Z,95557.09
2023-05-11T18:18:22.778Z,95547.72
2023-05-11T18:20:27.470Z,95498.41
2023-05-11T18:22:32.055Z,95550.03
2023-05-11T18:24:35.224Z,95555.44
2023-05-11T18:26:38.414Z,95548.50
2023-05-11T18:28:41.889Z,95549.38
2023-05-11T18:30:45.042Z,95559.28
2023-05-11T18:32:48.240Z,95560.53
2023-05-11T18:34:51.365Z,95558.56
2023-05-11T18:36:54.581Z,95560.47
2023-05-11T18:38:59.110Z,95554.91
2023-05-11T18:41:05.616Z,95568.53
2023-05-11T18:43:09.080Z,95404.41
2023-05-11T18:45:12.485Z,95569.31
2023-05-11T18:47:15.694Z,95563.19
2023-05-11T18:49:18.882Z,95558.50
2023-05-11T18:51:22.959Z,95568.84
2023-05-11T18:53:26.695Z,95567.31
2023-05-11T18:55:38.153Z,95572.47
2023-05-11T18:57:48.643Z,95568.44
2023-05-11T18:59:52.933Z,95579.50
2023-05-11T19:01:56.257Z,95579.78
2023-05-11T19:03:59.529Z,95581.94
2023-05-11T19:06:02.811Z,95580.63
2023-05-11T19:08:06.274Z,95579.84
2023-05-11T19:10:10.464Z,95582.78
2023-05-11T19:12:17.538Z,95571.94
2023-05-11T19:14:20.697Z,95567.91
2023-05-11T19:16:23.987Z,95588.91
2023-05-11T19:18:28.970Z,95522.09
2023-05-11T19:20:32.234Z,95579.19
2023-05-11T19:22:35.413Z,95585.38
2023-05-11T19:24:38.584Z,95582.44
2023-05-11T19:26:43.892Z,95434.97
2023-05-11T19:28:50.065Z,95588.44
2023-05-11T19:31:01.801Z,95578.47
2023-05-11T19:33:05.124Z,95597.63
2023-05-11T19:35:08.977Z,95577.16
2023-05-11T19:37:12.205Z,95591.66
2023-05-11T19:39:16.274Z,95599.00
2023-05-11T19:41:19.478Z,95595.72
2023-05-11T19:43:23.662Z,95600.31
2023-05-11T19:45:31.447Z,95601.97
2023-05-11T19:47:34.634Z,95582.03
2023-05-11T19:49:37.946Z,95607.88
2023-05-11T19:51:41.165Z,95612.19
2023-05-11T19:53:44.817Z,95612.72
2023-05-11T19:55:48.398Z,95611.09
2023-05-11T19:57:52.534Z,95527.09
2023-05-11T19:59:55.746Z,95580.97
2023-05-11T20:02:01.027Z,95605.22
2023-05-11T20:04:04.558Z,95606.28
2023-05-11T20:06:08.334Z,95607.06
2023-05-11T20:08:11.606Z,95603.88
2023-05-11T20:10:14.909Z,95612.50
2023-05-11T20:12:18.132Z,95611.16
2023-05-11T20:14:21.369Z,95546.47
2023-05-11T20:16:24.569Z,95618.69
2023-05-11T20:18:29.185Z,95614.66
2023-05-11T20:20:33.123Z,95634.84
2023-05-11T20:22:36.464Z,95594.97
2023-05-11T20:24:39.616Z,95613.31
2023-05-11T20:26:42.927Z,95606.84
2023-05-11T20:28:46.092Z,95610.34
2023-05-11T20:30:49.240Z,95607.91
2023-05-11T20:35:00.046Z,95615.09
2023-05-11T20:37:03.199Z,95611.59
2023-05-11T20:39:07.315Z,95599.81
2023-05-11T20:41:10.473Z,95595.69
2023-05-11T20:43:14.818Z,95597.59
2023-05-11T20:45:18.517Z,95603.22
2023-05-11T20:47:22.042Z,95595.66
2023-05-11T20:49:38.071Z,95435.34
2023-05-11T20:51:44.384Z,95593.78
2023-05-11T20:53:47.382Z,95588.38
2023-05-11T20:55:50.986Z,95590.78
2023-05-11T20:57:53.984Z,95601.31
2023-05-11T21:02:02.954Z,95593.25
2023-05-11T21:04:06.338Z,95594.78
2023-05-11T21:06:09.807Z,95600.19
2023-05-11T21:08:15.142Z,95589.16
2023-05-11T21:10:18.829Z,95599.09
2023-05-11T21:12:22.395Z,95594.25
2023-05-11T21:14:25.463Z,95600.59
2023-05-11T21:16:28.501Z,95598.44
2023-05-11T21:18:34.393Z,95599.31
2023-05-11T21:20:37.640Z,95532.75
2023-05-11T21:22:40.658Z,95604.41
2023-05-11T21:24:45.050Z,95536.97
2023-05-11T21:26:48.400Z,95611.38
2023-05-11T21:28:51.749Z,95610.41
2023-05-11T21:30:54.970Z,95603.41
2023-05-11T21:32:58.033Z,95614.66
2023-05-11T21:35:01.300Z,95512.59
2023-05-11T21:37:04.389Z,95607.50
2023-05-11T21:39:07.360Z,95603.84
2023-05-11T21:41:12.212Z,95541.03
2023-05-11T21:43:15.240Z,95599.94
2023-05-11T21:45:19.833Z,95587.78
2023-05-11T21:47:23.274Z,95605.00
2023-05-11T21:49:26.326Z,95595.66
2023-05-11T21:51:29.315Z,95601.97
2023-05-11T21:53:32.218Z,95601.34
2023-05-11T21:55:35.167Z,95602.25
2023-05-11T21:57:39.569Z,95605.69
2023-05-11T21:59:42.587Z,95607.38
2023-05-11T22:01:45.655Z,95604.44
2023-05-11T22:03:48.736Z,95604.19
2023-05-11T22:05:51.981Z,95599.88
2023-05-11T22:08:03.271Z,95610.16
2023-05-11T22:10:13.853Z,95610.19
2023-05-11T22:12:16.991Z,95607.16
2023-05-11T22:14:24.132Z,95609.38
2023-05-11T22:16:27.260Z,95605.91
2023-05-11T22:18:30.449Z,95599.50
2023-05-11T22:20:33.467Z,95599.13
2023-05-11T22:22:36.969Z,95568.41
2023-05-11T22:24:39.986Z,95601.09
2023-05-11T22:26:42.920Z,95607.25
2023-05-11T22:28:45.923Z,95597.84
2023-05-11T22:30:50.274Z,95611.03
2023-05-11T22:32:53.272Z,95604.81
2023-05-11T22:34:59.462Z,95602.97
2023-05-11T22:37:03.580Z,95603.53
2023-05-11T22:39:06.699Z,95605.13
2023-05-11T22:41:09.734Z,95603.56
2023-05-11T22:43:12.721Z,95570.41
2023-05-11T22:45:16.622Z,95614.75
2023-05-11T22:47:21.029Z,95606.72
2023-05-11T22:49:24.142Z,95604.63
2023-05-11T22:51:27.183Z,95590.13
2023-05-11T22:53:30.816Z,95600.09
2023-05-11T22:55:35.032Z,95604.44
2023-05-11T22:57:38.049Z,95600.00
2023-05-11T22:59:41.145Z,95596.25
2023-05-11T23:01:44.269Z,95603.31
2023-05-11T23:03:48.710Z,95598.22
2023-05-11T23:05:52.040Z,95594.94
2023-05-11T23:07:57.914Z,95602.84
2023-05-11T23:10:00.935Z,95596.09
2023-05-11T23:12:04.616Z,95606.38
2023-05-11T23:14:07.645Z,95605.97
2023-05-11T23:16:10.808Z,95599.06
2023-05-11T23:18:13.933Z,95577.28
2023-05-11T23:20:18.787Z,95598.88
2023-05-11T23:22:22.105Z,95601.03
2023-05-11T23:24:25.119Z,95598.09
2023-05-11T23:26:28.129Z,95600.88
2023-05-11T23:28:31.360Z,95599.41
2023-05-11T23:30:34.397Z,95590.50
2023-05-11T23:32:37.463Z,95589.31
2023-05-11T23:34:40.575Z,95590.13
2023-05-11T23:36:44.952Z,95586.31
2023-05-11T23:38:48.040Z,95585.06
2023-05-11T23:40:51.144Z,95589.09
2023-05-11T23:42:54.169Z,95590.91
2023-05-11T23:44:57.320Z,95399.34
2023-05-11T23:47:00.419Z,95542.72
2023-05-11T23:49:03.520Z,95583.94
2023-05-11T23:51:06.638Z,95586.44
2023-05-11T23:53:11.080Z,95579.53
2023-05-11T23:55:14.074Z,95588.88
2023-05-11T23:57:17.181Z,95576.66
2023-05-11T23:59:20.187Z,95572.38
